createdAt,value
2018-01-03T00:00:32.288Z,100.00
2018-01-03T00:01:37.245Z,100.00
2018-01-03T00:02:42.519Z,100.00
2018-01-03T00:03:47.986Z,100.00
2018-01-03T00:04:52.911Z,100.00
2018-01-03T00:05:58.198Z,100.00
2018-01-03T00:07:03.258Z,100.00
2018-01-03T00:08:08.257Z,100.00
2018-01-03T00:09:13.279Z,100.00
2018-01-03T00:10:18.190Z,100.00
2018-01-03T00:11:23.176Z,100.00
2018-01-03T00:12:28.392Z,100.00
2018-01-03T00:13:33.314Z,100.00
2018-01-03T00:14:38.229Z,100.00
2018-01-03T00:15:43.178Z,100.00
2018-01-03T00:16:48.109Z,100.00
2018-01-03T00:17:53.074Z,100.00
2018-01-03T00:18:58.365Z,100.00
2018-01-03T00:20:03.276Z,100.00
2018-01-03T00:21:08.206Z,100.00
2018-01-03T00:22:13.102Z,100.00
2018-01-03T00:23:18.085Z,100.00
2018-01-03T00:24:22.975Z,100.00
2018-01-03T00:25:28.172Z,100.00
2018-01-03T00:26:33.104Z,100.00
2018-01-03T00:27:38.126Z,100.00
2018-01-03T00:28:43.053Z,100.00
2018-01-03T00:29:48.169Z,100.00
2018-01-03T00:30:53.211Z,100.00
2018-01-03T00:31:58.509Z,100.00
2018-01-03T00:33:03.463Z,100.00
2018-01-03T00:34:08.504Z,100.00
2018-01-03T00:35:13.442Z,100.00
2018-01-03T00:36:18.346Z,100.00
2018-01-03T00:37:23.333Z,100.00
2018-01-03T00:38:28.548Z,100.00
2018-01-03T00:39:33.524Z,100.00
2018-01-03T00:40:38.479Z,100.00
2018-01-03T00:41:43.433Z,100.00
2018-01-03T00:42:48.376Z,100.00
2018-01-03T00:43:53.358Z,100.00
2018-01-03T00:44:58.622Z,100.00
2018-01-03T00:46:03.516Z,100.00
2018-01-03T00:47:08.486Z,100.00
2018-01-03T00:48:13.427Z,100.00
2018-01-03T00:49:18.357Z,100.00
2018-01-03T00:50:23.541Z,100.00
2018-01-03T00:51:28.804Z,100.00
2018-01-03T00:52:33.728Z,100.00
2018-01-03T00:53:38.636Z,100.00
2018-01-03T00:54:43.567Z,100.00
2018-01-03T00:55:48.522Z,100.00
2018-01-03T00:56:53.818Z,100.00
2018-01-03T00:57:59.109Z,100.00
2018-01-03T00:59:04.045Z,100.00
2018-01-03T01:00:09.015Z,100.00
2018-01-03T01:01:13.939Z,100.00
2018-01-03T01:02:18.873Z,100.00
2018-01-03T01:03:23.804Z,100.00
2018-01-03T01:04:29.020Z,100.00
2018-01-03T01:05:33.933Z,100.00
2018-01-03T01:06:38.837Z,100.00
2018-01-03T01:07:43.771Z,100.00
2018-01-03T01:08:48.737Z,100.00
2018-01-03T01:09:53.652Z,100.00
2018-01-03T01:10:58.861Z,100.00
2018-01-03T01:12:03.542Z,100.00
2018-01-03T01:13:08.231Z,100.00
2018-01-03T01:14:12.821Z,100.00
2018-01-03T01:15:17.428Z,100.00
2018-01-03T01:16:22.231Z,100.00
2018-01-03T01:17:27.306Z,100.00
2018-01-03T01:18:32.326Z,100.00
2018-01-03T01:19:37.071Z,100.00
2018-01-03T01:20:41.947Z,100.00
2018-01-03T01:21:46.698Z,100.00
2018-01-03T01:22:51.532Z,100.00
2018-01-03T01:23:56.748Z,100.00
2018-01-03T01:25:01.547Z,100.00
2018-01-03T01:26:06.389Z,100.00
2018-01-03T01:27:11.262Z,100.00
2018-01-03T01:28:16.073Z,100.00
2018-01-03T01:29:20.916Z,100.00
2018-01-03T01:30:25.874Z,100.00
2018-01-03T01:31:30.718Z,100.00
2018-01-03T01:32:35.564Z,100.00
2018-01-03T01:33:41.271Z,100.00
2018-01-03T01:34:46.222Z,100.00
2018-01-03T01:35:51.162Z,100.00
2018-01-03T01:36:56.407Z,100.00
2018-01-03T01:38:01.333Z,100.00
2018-01-03T01:39:06.307Z,100.00
2018-01-03T01:40:11.285Z,100.00
2018-01-03T01:41:16.183Z,100.00
2018-01-03T01:42:21.108Z,100.00
2018-01-03T01:43:26.444Z,100.00
2018-01-03T01:44:31.354Z,100.00
2018-01-03T01:45:36.405Z,100.00
2018-01-03T01:46:41.299Z,100.00
2018-01-03T01:47:46.182Z,100.00
2018-01-03T01:48:55.299Z,100.00
2018-01-03T01:50:00.261Z,100.00
2018-01-03T01:51:05.199Z,100.00
2018-01-03T01:52:10.170Z,100.00
2018-01-03T01:53:15.053Z,100.00
2018-01-03T01:54:19.972Z,100.00
2018-01-03T01:55:25.171Z,100.00
2018-01-03T01:56:30.159Z,100.00
2018-01-03T01:57:35.103Z,100.00
2018-01-03T01:58:40.108Z,100.00
2018-01-03T01:59:44.966Z,100.00
2018-01-03T02:00:49.911Z,100.00
2018-01-03T02:01:55.209Z,100.00
2018-01-03T02:03:00.041Z,100.00
2018-01-03T02:04:04.911Z,100.00
2018-01-03T02:05:09.811Z,100.00
2018-01-03T02:06:14.789Z,100.00
2018-01-03T02:07:19.646Z,100.00
2018-01-03T02:08:24.768Z,100.00
2018-01-03T02:09:29.661Z,100.00
2018-01-03T02:10:34.608Z,100.00
2018-01-03T02:11:39.416Z,100.00
2018-01-03T02:12:44.351Z,100.00
2018-01-03T02:13:49.264Z,100.00
2018-01-03T02:14:54.588Z,100.00
2018-01-03T02:15:59.680Z,100.00
2018-01-03T02:17:05.289Z,100.00
2018-01-03T02:18:10.184Z,100.00
2018-01-03T02:19:15.141Z,100.00
2018-01-03T02:20:20.119Z,100.00
2018-01-03T02:21:26.151Z,100.00
2018-01-03T02:22:31.079Z,100.00
2018-01-03T02:23:36.100Z,100.00
2018-01-03T02:24:41.005Z,100.00
2018-01-03T02:25:45.932Z,100.00
2018-01-03T02:26:50.886Z,100.00
2018-01-03T02:27:56.097Z,100.00
2018-01-03T02:29:01.250Z,100.00
2018-01-03T02:30:06.190Z,100.00
2018-01-03T02:31:11.036Z,100.00
2018-01-03T02:32:15.913Z,100.00
2018-01-03T02:33:20.831Z,100.00
2018-01-03T02:34:26.085Z,100.00
2018-01-03T02:35:31.129Z,100.00
2018-01-03T02:36:36.020Z,100.00
2018-01-03T02:37:40.958Z,100.00
2018-01-03T02:38:45.923Z,100.00
2018-01-03T02:39:50.908Z,100.00
2018-01-03T02:40:56.154Z,100.00
2018-01-03T02:42:10.612Z,100.00
2018-01-03T02:43:15.587Z,100.00
2018-01-03T02:44:20.629Z,100.00
2018-01-03T02:45:25.640Z,100.00
2018-01-03T02:46:30.592Z,100.00
2018-01-03T02:47:35.834Z,100.00
2018-01-03T02:48:40.798Z,100.00
2018-01-03T02:49:45.807Z,100.00
2018-01-03T02:50:50.780Z,100.00
2018-01-03T02:51:55.786Z,100.00
2018-01-03T02:53:00.778Z,100.00
2018-01-03T02:54:06.089Z,100.00
2018-01-03T02:55:11.113Z,100.00
2018-01-03T02:56:16.097Z,100.00
2018-01-03T02:57:21.141Z,100.00
2018-01-03T02:58:26.248Z,100.00
2018-01-03T02:59:31.291Z,100.00
2018-01-03T03:00:37.269Z,100.00
2018-01-03T03:01:42.303Z,100.00
2018-01-03T03:02:47.267Z,100.00
2018-01-03T03:03:52.227Z,100.00
2018-01-03T03:04:57.282Z,100.00
2018-01-03T03:06:02.256Z,100.00
2018-01-03T03:07:07.518Z,100.00
2018-01-03T03:08:12.540Z,100.00
2018-01-03T03:09:17.514Z,100.00
2018-01-03T03:10:22.476Z,100.00
2018-01-03T03:11:27.426Z,100.00
2018-01-03T03:12:32.478Z,100.00
2018-01-03T03:13:37.839Z,100.00
2018-01-03T03:14:42.658Z,100.00
2018-01-03T03:15:47.473Z,100.00
2018-01-03T03:16:53.110Z,100.00
2018-01-03T03:17:58.133Z,100.00
2018-01-03T03:19:03.173Z,100.00
2018-01-03T03:20:08.475Z,100.00
2018-01-03T03:21:13.366Z,100.00
2018-01-03T03:22:18.172Z,100.00
2018-01-03T03:23:22.974Z,100.00
2018-01-03T03:24:27.819Z,100.00
2018-01-03T03:25:32.615Z,100.00
2018-01-03T03:26:37.901Z,100.00
2018-01-03T03:27:42.906Z,100.00
2018-01-03T03:28:47.853Z,100.00
2018-01-03T03:29:52.783Z,100.00
2018-01-03T03:30:57.748Z,100.00
2018-01-03T03:32:02.602Z,100.00
2018-01-03T03:33:07.800Z,100.00
2018-01-03T03:34:12.611Z,100.00
2018-01-03T03:35:17.581Z,100.00
2018-01-03T03:36:22.533Z,100.00
2018-01-03T03:37:27.572Z,100.00
2018-01-03T03:38:32.569Z,100.00
2018-01-03T03:39:37.978Z,100.00
2018-01-03T03:40:43.062Z,100.00
2018-01-03T03:41:48.032Z,100.00
2018-01-03T03:42:53.031Z,100.00
2018-01-03T03:43:58.024Z,100.00
2018-01-03T03:45:02.977Z,100.00
2018-01-03T03:46:08.246Z,100.00
2018-01-03T03:47:13.235Z,100.00
2018-01-03T03:48:18.241Z,100.00
2018-01-03T03:49:23.180Z,100.00
2018-01-03T03:50:28.182Z,100.00
2018-01-03T03:51:33.220Z,100.00
2018-01-03T03:52:38.514Z,100.00
2018-01-03T03:53:43.527Z,100.00
2018-01-03T03:54:48.541Z,100.00
2018-01-03T03:55:53.536Z,100.00
2018-01-03T03:56:58.618Z,100.00
2018-01-03T03:58:03.610Z,100.00
2018-01-03T03:59:08.991Z,100.00
2018-01-03T04:00:13.992Z,100.00
2018-01-03T04:01:19.026Z,100.00
2018-01-03T04:02:23.902Z,100.00
2018-01-03T04:03:28.971Z,100.00
2018-01-03T04:04:33.955Z,100.00
2018-01-03T04:05:39.224Z,100.00
2018-01-03T04:06:44.209Z,100.00
2018-01-03T04:07:49.238Z,100.00
2018-01-03T04:08:54.246Z,100.00
2018-01-03T04:09:59.278Z,100.00
2018-01-03T04:11:04.287Z,100.00
2018-01-03T04:12:09.543Z,100.00
2018-01-03T04:13:14.573Z,100.00
2018-01-03T04:14:19.378Z,100.00
2018-01-03T04:15:24.217Z,100.00
2018-01-03T04:16:29.062Z,100.00
2018-01-03T04:17:33.879Z,100.00
2018-01-03T04:18:38.988Z,100.00
2018-01-03T04:19:43.955Z,100.00
2018-01-03T04:20:48.844Z,100.00
2018-01-03T04:21:53.614Z,100.00
2018-01-03T04:22:58.357Z,100.00
2018-01-03T04:24:03.170Z,100.00
2018-01-03T04:25:08.282Z,100.00
2018-01-03T04:26:13.120Z,100.00
2018-01-03T04:27:17.936Z,100.00
2018-01-03T04:28:22.762Z,100.00
2018-01-03T04:29:27.742Z,100.00
2018-01-03T04:30:32.728Z,100.00
2018-01-03T04:31:38.006Z,100.00
2018-01-03T04:32:43.042Z,100.00
2018-01-03T04:33:47.978Z,100.00
2018-01-03T04:34:52.872Z,100.00
2018-01-03T04:35:57.783Z,100.00
2018-01-03T04:37:02.684Z,100.00
2018-01-03T04:38:07.945Z,100.00
2018-01-03T04:39:12.858Z,100.00
2018-01-03T04:40:17.731Z,100.00
2018-01-03T04:41:22.754Z,100.00
2018-01-03T04:42:27.648Z,100.00
2018-01-03T04:43:32.523Z,100.00
2018-01-03T04:44:37.760Z,100.00
2018-01-03T04:45:43.633Z,100.00
2018-01-03T04:46:48.591Z,100.00
2018-01-03T04:47:53.523Z,100.00
2018-01-03T04:48:58.382Z,100.00
2018-01-03T04:50:03.312Z,100.00
2018-01-03T04:51:08.487Z,100.00
2018-01-03T04:52:13.439Z,100.00
2018-01-03T04:53:18.326Z,100.00
2018-01-03T04:54:23.222Z,100.00
2018-01-03T04:55:28.110Z,100.00
2018-01-03T04:56:32.965Z,100.00
2018-01-03T04:57:38.155Z,100.00
2018-01-03T04:58:43.095Z,100.00
2018-01-03T04:59:48.102Z,100.00
2018-01-03T05:00:53.049Z,100.00
2018-01-03T05:01:57.948Z,100.00
2018-01-03T05:03:02.897Z,100.00
2018-01-03T05:04:08.132Z,100.00
2018-01-03T05:05:13.029Z,100.00
2018-01-03T05:06:17.918Z,100.00
2018-01-03T05:07:22.848Z,100.00
2018-01-03T05:08:27.798Z,100.00
2018-01-03T05:09:32.722Z,100.00
2018-01-03T05:10:37.789Z,100.00
2018-01-03T05:11:42.645Z,100.00
2018-01-03T05:12:47.495Z,100.00
2018-01-03T05:13:52.318Z,100.00
2018-01-03T05:14:57.193Z,100.00
2018-01-03T05:16:02.085Z,100.00
2018-01-03T05:17:07.879Z,100.00
2018-01-03T05:18:12.698Z,100.00
2018-01-03T05:19:17.583Z,100.00
2018-01-03T05:20:22.482Z,100.00
2018-01-03T05:21:27.436Z,100.00
2018-01-03T05:22:32.370Z,100.00
2018-01-03T05:23:37.530Z,100.00
2018-01-03T05:24:42.431Z,100.00
2018-01-03T05:25:47.364Z,100.00
2018-01-03T05:26:52.423Z,100.00
2018-01-03T05:27:57.333Z,100.00
2018-01-03T05:29:02.531Z,100.00
2018-01-03T05:30:07.478Z,100.00
2018-01-03T05:31:12.474Z,100.00
2018-01-03T05:32:18.664Z,100.00
2018-01-03T05:33:23.635Z,100.00
2018-01-03T05:34:28.499Z,100.00
2018-01-03T05:35:33.752Z,100.00
2018-01-03T05:36:38.973Z,100.00
2018-01-03T05:37:43.966Z,100.00
2018-01-03T05:38:48.906Z,100.00
2018-01-03T05:39:53.882Z,100.00
2018-01-03T05:40:58.881Z,100.00
2018-01-03T05:42:04.203Z,100.00
2018-01-03T05:43:09.252Z,100.00
2018-01-03T05:44:14.252Z,100.00
2018-01-03T05:45:19.226Z,100.00
2018-01-03T05:46:24.254Z,100.00
2018-01-03T05:47:29.240Z,100.00
2018-01-03T05:48:34.511Z,100.00
2018-01-03T05:49:40.145Z,100.00
2018-01-03T05:50:45.140Z,100.00
2018-01-03T05:51:50.068Z,100.00
2018-01-03T05:52:54.975Z,100.00
2018-01-03T05:53:59.944Z,100.00
2018-01-03T05:55:05.335Z,100.00
2018-01-03T05:56:10.308Z,100.00
2018-01-03T05:57:15.324Z,100.00
2018-01-03T05:58:20.298Z,100.00
2018-01-03T05:59:25.289Z,100.00
2018-01-03T06:00:30.332Z,100.00
2018-01-03T06:01:35.682Z,100.00
2018-01-03T06:02:40.701Z,100.00
2018-01-03T06:03:45.723Z,100.00
2018-01-03T06:04:50.982Z,100.00
2018-01-03T06:05:56.259Z,100.00
2018-01-03T06:07:01.342Z,100.00
2018-01-03T06:08:06.779Z,100.00
2018-01-03T06:09:11.799Z,100.00
2018-01-03T06:10:16.770Z,100.00
2018-01-03T06:11:21.765Z,100.00
2018-01-03T06:12:26.821Z,100.00
2018-01-03T06:13:31.806Z,100.00
2018-01-03T06:14:37.144Z,100.00
2018-01-03T06:15:42.078Z,100.00
2018-01-03T06:16:46.982Z,100.00
2018-01-03T06:17:51.901Z,100.00
2018-01-03T06:18:57.119Z,100.00
2018-01-03T06:20:02.067Z,100.00
2018-01-03T06:21:07.308Z,100.00
2018-01-03T06:22:12.204Z,100.00
2018-01-03T06:23:17.110Z,100.00
2018-01-03T06:24:22.002Z,100.00
2018-01-03T06:25:26.943Z,100.00
2018-01-03T06:26:32.146Z,100.00
2018-01-03T06:27:37.348Z,100.00
2018-01-03T06:28:42.290Z,100.00
2018-01-03T06:29:47.191Z,100.00
2018-01-03T06:30:52.067Z,100.00
2018-01-03T06:31:57.042Z,100.00
2018-01-03T06:33:01.974Z,100.00
2018-01-03T06:34:08.480Z,100.00
2018-01-03T06:35:13.444Z,100.00
2018-01-03T06:36:18.345Z,100.00
2018-01-03T06:37:23.278Z,100.00
2018-01-03T06:38:28.149Z,100.00
2018-01-03T06:39:33.111Z,100.00
2018-01-03T06:40:38.308Z,100.00
2018-01-03T06:41:43.183Z,100.00
2018-01-03T06:42:48.067Z,100.00
2018-01-03T06:43:53.094Z,100.00
2018-01-03T06:44:59.139Z,100.00
2018-01-03T06:46:04.091Z,100.00
2018-01-03T06:47:10.188Z,100.00
2018-01-03T06:48:15.236Z,100.00
2018-01-03T06:49:20.251Z,100.00
2018-01-03T06:50:25.438Z,100.00
2018-01-03T06:51:30.505Z,100.00
2018-01-03T06:52:35.532Z,100.00
2018-01-03T06:53:40.859Z,100.00
2018-01-03T06:54:45.778Z,100.00
2018-01-03T06:55:50.760Z,100.00
2018-01-03T06:56:55.686Z,100.00
2018-01-03T06:58:00.670Z,100.00
2018-01-03T06:59:05.568Z,100.00
2018-01-03T07:00:10.918Z,100.00
2018-01-03T07:01:15.806Z,100.00
2018-01-03T07:02:20.792Z,100.00
2018-01-03T07:03:25.729Z,100.00
2018-01-03T07:04:30.579Z,100.00
2018-01-03T07:05:35.461Z,100.00
2018-01-03T07:06:40.643Z,100.00
2018-01-03T07:07:45.562Z,100.00
2018-01-03T07:08:50.475Z,100.00
2018-01-03T07:09:55.335Z,100.00
2018-01-03T07:11:00.156Z,100.00
2018-01-03T07:12:04.458Z,100.00
2018-01-03T07:13:09.884Z,100.00
2018-01-03T07:14:14.647Z,100.00
2018-01-03T07:15:19.503Z,100.00
2018-01-03T07:16:24.413Z,100.00
2018-01-03T07:17:29.232Z,100.00
2018-01-03T07:18:34.805Z,100.00
2018-01-03T07:19:40.178Z,100.00
2018-01-03T07:20:45.112Z,100.00
2018-01-03T07:21:50.094Z,100.00
2018-01-03T07:22:55.012Z,100.00
2018-01-03T07:23:59.966Z,100.00
2018-01-03T07:25:04.934Z,100.00
2018-01-03T07:26:10.434Z,100.00
2018-01-03T07:27:15.555Z,100.00
2018-01-03T07:28:20.640Z,100.00
2018-01-03T07:29:25.618Z,100.00
2018-01-03T07:30:30.695Z,100.00
2018-01-03T07:31:35.780Z,100.00
2018-01-03T07:32:41.178Z,100.00
2018-01-03T07:33:46.157Z,100.00
2018-01-03T07:34:51.191Z,100.00
2018-01-03T07:35:56.153Z,100.00
2018-01-03T07:37:01.343Z,100.00
2018-01-03T07:38:06.371Z,100.00
2018-01-03T07:39:11.760Z,100.00
2018-01-03T07:40:16.649Z,100.00
2018-01-03T07:41:21.583Z,100.00
2018-01-03T07:42:26.490Z,100.00
2018-01-03T07:43:31.290Z,100.00
2018-01-03T07:44:36.234Z,100.00
2018-01-03T07:45:41.586Z,100.00
2018-01-03T07:46:46.503Z,100.00
2018-01-03T07:47:51.430Z,100.00
2018-01-03T07:48:56.446Z,100.00
2018-01-03T07:50:01.435Z,100.00
2018-01-03T07:51:06.400Z,100.00
2018-01-03T07:52:11.937Z,100.00
2018-01-03T07:53:16.937Z,100.00
2018-01-03T07:54:22.013Z,100.00
2018-01-03T07:55:27.020Z,100.00
2018-01-03T07:56:31.980Z,100.00
2018-01-03T07:57:36.943Z,100.00
2018-01-03T07:58:42.406Z,100.00
2018-01-03T07:59:47.402Z,100.00
2018-01-03T08:00:52.551Z,100.00
2018-01-03T08:01:57.649Z,100.00
2018-01-03T08:03:02.646Z,100.00
2018-01-03T08:04:07.667Z,100.00
2018-01-03T08:05:13.127Z,100.00
2018-01-03T08:06:18.148Z,100.00
2018-01-03T08:07:23.189Z,100.00
2018-01-03T08:08:28.243Z,100.00
2018-01-03T08:09:33.220Z,100.00
2018-01-03T08:10:38.298Z,100.00
2018-01-03T08:11:44.121Z,100.00
2018-01-03T08:12:49.091Z,100.00
2018-01-03T08:13:54.070Z,100.00
2018-01-03T08:14:59.327Z,100.00
2018-01-03T08:16:04.312Z,99.78
2018-01-03T08:17:09.433Z,100.00
2018-01-03T08:18:15.265Z,100.00
2018-01-03T08:19:20.361Z,100.00
2018-01-03T08:20:25.406Z,99.82
2018-01-03T08:21:30.417Z,99.56
2018-01-03T08:22:35.477Z,99.42
2018-01-03T08:23:40.509Z,99.38
2018-01-03T08:24:45.997Z,99.66
2018-01-03T08:25:51.012Z,99.87
2018-01-03T08:26:56.018Z,94.67
2018-01-03T08:28:01.060Z,96.40
2018-01-03T08:29:06.066Z,92.73
2018-01-03T08:30:11.135Z,93.40
2018-01-03T08:31:16.640Z,93.76
2018-01-03T08:32:21.677Z,95.21
2018-01-03T08:33:26.827Z,96.36
2018-01-03T08:34:31.929Z,94.96
2018-01-03T08:35:36.974Z,91.57
2018-01-03T08:36:41.989Z,94.31
2018-01-03T08:37:46.994Z,94.71
2018-01-03T08:38:52.020Z,96.70
2018-01-03T08:39:57.104Z,96.01
2018-01-03T08:41:02.095Z,92.34
2018-01-03T08:42:07.218Z,95.24
2018-01-03T08:43:12.304Z,98.60
2018-01-03T08:44:17.764Z,99.86
2018-01-03T08:45:23.731Z,99.62
2018-01-03T08:46:28.896Z,100.00
2018-01-03T08:47:34.001Z,100.00
2018-01-03T08:48:39.046Z,100.00
2018-01-03T08:49:44.077Z,100.00
2018-01-03T08:50:49.464Z,100.00
2018-01-03T08:51:54.593Z,100.00
2018-01-03T08:52:59.635Z,100.00
2018-01-03T08:54:04.624Z,100.00
2018-01-03T08:55:09.628Z,100.00
2018-01-03T08:56:15.128Z,100.00
2018-01-03T08:57:20.602Z,100.00
2018-01-03T08:58:25.636Z,100.00
2018-01-03T08:59:30.642Z,100.00
2018-01-03T09:00:35.759Z,100.00
2018-01-03T09:01:40.744Z,100.00
2018-01-03T09:02:46.378Z,100.00
2018-01-03T09:03:51.765Z,100.00
2018-01-03T09:04:56.796Z,100.00
2018-01-03T09:06:01.924Z,100.00
2018-01-03T09:07:06.943Z,100.00
2018-01-03T09:08:11.948Z,100.00
2018-01-03T09:09:17.057Z,100.00
2018-01-03T09:10:22.586Z,100.00
2018-01-03T09:11:27.573Z,100.00
2018-01-03T09:12:32.647Z,100.00
2018-01-03T09:13:37.906Z,100.00
2018-01-03T09:14:43.020Z,100.00
2018-01-03T09:15:48.024Z,100.00
2018-01-03T09:16:53.549Z,100.00
2018-01-03T09:17:58.592Z,100.00
2018-01-03T09:19:03.628Z,100.00
2018-01-03T09:20:09.574Z,100.00
2018-01-03T09:21:14.856Z,100.00
2018-01-03T09:22:19.919Z,100.00
2018-01-03T09:23:25.294Z,100.00
2018-01-03T09:24:30.310Z,100.00
2018-01-03T09:25:35.341Z,100.00
2018-01-03T09:26:40.349Z,100.00
2018-01-03T09:27:45.429Z,100.00
2018-01-03T09:28:50.522Z,100.00
2018-01-03T09:29:56.138Z,100.00
2018-01-03T09:31:01.136Z,100.00
2018-01-03T09:32:06.452Z,100.00
2018-01-03T09:33:11.526Z,100.00
2018-01-03T09:34:16.634Z,100.00
2018-01-03T09:35:21.634Z,100.00
2018-01-03T09:36:28.246Z,100.00
2018-01-03T09:38:52.266Z,100.00
2018-01-03T09:39:57.256Z,100.00
2018-01-03T09:41:02.281Z,100.00
2018-01-03T09:42:07.309Z,100.00
2018-01-03T09:43:12.687Z,100.00
2018-01-03T09:44:17.633Z,100.00
2018-01-03T09:45:22.644Z,100.00
2018-01-03T09:46:27.646Z,100.00
2018-01-03T09:47:32.556Z,100.00
2018-01-03T09:48:37.487Z,100.00
2018-01-03T09:49:42.767Z,100.00
2018-01-03T09:50:47.665Z,100.00
2018-01-03T09:51:53.132Z,100.00
2018-01-03T09:52:58.112Z,100.00
2018-01-03T09:54:03.197Z,100.00
2018-01-03T09:55:08.277Z,100.00
2018-01-03T09:56:13.931Z,100.00
2018-01-03T09:57:18.925Z,100.00
2018-01-03T09:58:23.876Z,100.00
2018-01-03T09:59:28.817Z,100.00
2018-01-03T10:00:33.790Z,100.00
2018-01-03T10:01:38.743Z,100.00
2018-01-03T10:02:44.008Z,100.00
2018-01-03T10:03:49.836Z,100.00
2018-01-03T10:04:54.768Z,100.00
2018-01-03T10:05:59.711Z,100.00
2018-01-03T10:07:04.638Z,100.00
2018-01-03T10:08:09.573Z,100.00
2018-01-03T10:09:14.848Z,100.00
2018-01-03T10:10:19.798Z,100.00
2018-01-03T10:11:24.891Z,100.00
2018-01-03T10:12:29.812Z,100.00
2018-01-03T10:13:34.801Z,100.00
2018-01-03T10:14:39.752Z,100.00
2018-01-03T10:15:45.270Z,100.00
2018-01-03T10:16:50.330Z,100.00
2018-01-03T10:17:55.332Z,100.00
2018-01-03T10:19:00.309Z,100.00
2018-01-03T10:20:05.340Z,100.00
2018-01-03T10:21:10.298Z,100.00
2018-01-03T10:22:15.798Z,100.00
2018-01-03T10:23:21.282Z,100.00
2018-01-03T10:24:26.280Z,100.00
2018-01-03T10:25:31.189Z,100.00
2018-01-03T10:26:36.024Z,100.00
2018-01-03T10:27:40.993Z,100.00
2018-01-03T10:28:46.169Z,100.00
2018-01-03T10:29:51.740Z,100.00
2018-01-03T10:30:56.643Z,100.00
2018-01-03T10:32:01.681Z,100.00
2018-01-03T10:33:06.826Z,100.00
2018-01-03T10:34:11.805Z,100.00
2018-01-03T10:35:17.164Z,100.00
2018-01-03T10:36:22.131Z,100.00
2018-01-03T10:37:27.154Z,100.00
2018-01-03T10:38:32.120Z,100.00
2018-01-03T10:39:37.038Z,100.00
2018-01-03T10:40:41.960Z,100.00
2018-01-03T10:41:47.312Z,100.00
2018-01-03T10:42:52.252Z,100.00
2018-01-03T10:43:57.207Z,100.00
2018-01-03T10:45:02.133Z,100.00
2018-01-03T10:46:07.026Z,100.00
2018-01-03T10:47:12.104Z,100.00
2018-01-03T10:48:17.478Z,100.00
2018-01-03T10:49:22.546Z,100.00
2018-01-03T10:50:27.552Z,100.00
2018-01-03T10:51:32.495Z,100.00
2018-01-03T10:52:37.408Z,100.00
2018-01-03T10:53:42.389Z,100.00
2018-01-03T10:54:47.848Z,100.00
2018-01-03T10:55:52.831Z,100.00
2018-01-03T10:56:57.921Z,100.00
2018-01-03T10:58:02.976Z,100.00
2018-01-03T10:59:07.983Z,100.00
2018-01-03T11:00:13.067Z,100.00
2018-01-03T11:01:18.513Z,100.00
2018-01-03T11:02:23.479Z,100.00
2018-01-03T11:03:32.510Z,100.00
2018-01-03T11:04:37.418Z,100.00
2018-01-03T11:05:42.381Z,100.00
2018-01-03T11:06:47.754Z,100.00
2018-01-03T11:07:53.225Z,100.00
2018-01-03T11:08:58.377Z,100.00
2018-01-03T11:10:03.394Z,100.00
2018-01-03T11:11:08.413Z,100.00
2018-01-03T11:12:13.547Z,100.00
2018-01-03T11:13:18.595Z,100.00
2018-01-03T11:14:24.061Z,100.00
2018-01-03T11:15:29.164Z,100.00
2018-01-03T11:16:35.429Z,100.00
2018-01-03T11:17:40.437Z,100.00
2018-01-03T11:18:45.693Z,100.00
2018-01-03T11:19:50.709Z,100.00
2018-01-03T11:20:56.303Z,100.00
2018-01-03T11:22:01.297Z,100.00
2018-01-03T11:23:06.302Z,100.00
2018-01-03T11:24:11.304Z,100.00
2018-01-03T11:25:16.360Z,100.00
2018-01-03T11:26:21.487Z,100.00
2018-01-03T11:27:26.900Z,100.00
2018-01-03T11:28:31.856Z,100.00
2018-01-03T11:29:36.835Z,100.00
2018-01-03T11:30:41.920Z,100.00
2018-01-03T11:31:46.982Z,100.00
2018-01-03T11:32:51.986Z,100.00
2018-01-03T11:33:57.587Z,100.00
2018-01-03T11:35:02.801Z,100.00
2018-01-03T11:36:07.734Z,100.00
2018-01-03T11:37:12.782Z,100.00
2018-01-03T11:38:17.956Z,100.00
2018-01-03T11:39:22.914Z,99.09
2018-01-03T11:40:28.289Z,99.25
2018-01-03T11:41:33.309Z,98.52
2018-01-03T11:42:38.104Z,97.68
2018-01-03T11:43:43.331Z,95.90
2018-01-03T11:44:48.354Z,95.99
2018-01-03T11:45:53.244Z,97.38
2018-01-03T11:46:58.679Z,98.03
2018-01-03T11:48:03.593Z,98.02
2018-01-03T11:49:08.727Z,97.69
2018-01-03T11:50:13.806Z,96.52
2018-01-03T11:51:18.871Z,95.76
2018-01-03T11:52:24.076Z,98.44
2018-01-03T11:53:29.451Z,98.46
2018-01-03T11:54:34.444Z,96.85
2018-01-03T11:55:39.388Z,96.52
2018-01-03T11:56:44.909Z,96.03
2018-01-03T11:57:50.029Z,95.69
2018-01-03T11:58:54.988Z,95.75
2018-01-03T12:00:00.514Z,94.25
2018-01-03T12:01:05.593Z,92.09
2018-01-03T12:02:10.650Z,89.12
2018-01-03T12:03:15.810Z,91.76
2018-01-03T12:04:20.818Z,91.91
2018-01-03T12:05:25.946Z,93.82
2018-01-03T12:06:31.889Z,92.54
2018-01-03T12:07:38.758Z,91.02
2018-01-03T12:08:44.339Z,92.41
2018-01-03T12:09:49.357Z,95.13
2018-01-03T12:10:54.554Z,93.94
2018-01-03T12:11:59.648Z,92.58
2018-01-03T12:13:05.103Z,95.83
2018-01-03T12:14:10.235Z,96.12
2018-01-03T12:15:16.802Z,96.40
2018-01-03T12:16:22.045Z,95.83
2018-01-03T12:17:27.054Z,96.72
2018-01-03T12:18:32.049Z,96.18
2018-01-03T12:19:37.493Z,97.19
2018-01-03T12:20:42.543Z,98.17
2018-01-03T12:21:47.543Z,95.83
2018-01-03T12:22:52.656Z,96.48
2018-01-03T12:23:57.692Z,97.05
2018-01-03T12:25:02.876Z,95.66
2018-01-03T12:26:08.380Z,95.71
2018-01-03T12:27:13.618Z,97.78
2018-01-03T12:28:19.739Z,98.07
2018-01-03T12:29:25.527Z,99.76
2018-01-03T12:30:32.426Z,98.41
2018-01-03T12:31:37.599Z,99.24
2018-01-03T12:32:43.195Z,98.83
2018-01-03T12:33:48.248Z,99.33
2018-01-03T12:34:53.535Z,99.87
2018-01-03T12:35:58.610Z,100.00
2018-01-03T12:37:03.618Z,100.00
2018-01-03T12:38:08.814Z,100.00
2018-01-03T12:39:14.626Z,100.00
2018-01-03T12:40:19.652Z,100.00
2018-01-03T12:41:24.952Z,100.00
2018-01-03T12:42:30.281Z,98.99
2018-01-03T12:43:35.340Z,99.53
2018-01-03T12:44:40.776Z,99.97
2018-01-03T12:45:46.552Z,99.86
2018-01-03T12:46:51.831Z,100.00
2018-01-03T12:47:58.253Z,99.79
2018-01-03T12:49:03.710Z,100.00
2018-01-03T12:50:09.645Z,100.00
2018-01-03T12:51:15.236Z,100.00
2018-01-03T12:52:20.303Z,100.00
2018-01-03T12:53:25.962Z,99.81
2018-01-03T12:54:31.134Z,100.00
2018-01-03T12:55:36.141Z,100.00
2018-01-03T12:56:41.140Z,100.00
2018-01-03T12:57:46.657Z,99.86
2018-01-03T12:58:51.773Z,100.00
2018-01-03T12:59:56.974Z,100.00
2018-01-03T13:01:02.087Z,100.00
2018-01-03T13:02:07.541Z,100.00
2018-01-03T13:03:12.626Z,100.00
2018-01-03T13:04:18.150Z,99.82
2018-01-03T13:05:23.203Z,100.00
2018-01-03T13:06:28.266Z,100.00
2018-01-03T13:07:33.431Z,100.00
2018-01-03T13:08:38.491Z,98.22
2018-01-03T13:09:43.736Z,98.10
2018-01-03T13:10:49.093Z,98.83
2018-01-03T13:11:54.622Z,98.37
2018-01-03T13:12:59.740Z,97.77
2018-01-03T13:14:04.934Z,97.88
2018-01-03T13:15:10.134Z,97.57
2018-01-03T13:16:15.979Z,98.46
2018-01-03T13:17:21.475Z,99.09
2018-01-03T13:18:26.374Z,98.99
2018-01-03T13:19:31.443Z,99.41
2018-01-03T13:20:36.517Z,100.00
2018-01-03T13:21:41.439Z,100.00
2018-01-03T13:22:46.735Z,100.00
2018-01-03T13:23:52.313Z,100.00
2018-01-03T13:24:57.376Z,100.00
2018-01-03T13:26:02.661Z,100.00
2018-01-03T13:27:08.142Z,100.00
2018-01-03T13:28:13.329Z,100.00
2018-01-03T13:29:18.328Z,100.00
2018-01-03T13:30:24.204Z,100.00
2018-01-03T13:31:29.313Z,100.00
2018-01-03T13:32:34.227Z,100.00
2018-01-03T13:33:39.434Z,100.00
2018-01-03T13:34:44.550Z,100.00
2018-01-03T13:35:49.622Z,100.00
2018-01-03T13:36:55.051Z,100.00